sensor_id;sensor_type;location;lat;lon;timestamp;P1;durP1;ratioP1;P2;durP2;ratioP2
51810;SDS011;52468;40.116;18.296;2024-02-15T00:00:52;8.33;;;2.83;;
51810;SDS011;52468;40.116;18.296;2024-02-15T00:03:20;9.07;;;2.67;;
51810;SDS011;52468;40.116;18.296;2024-02-15T00:05:48;9.47;;;2.87;;
51810;SDS011;52468;40.116;18.296;2024-02-15T00:08:16;7.30;;;3.13;;
51810;SDS011;52468;40.116;18.296;2024-02-15T00:10:44;11.47;;;2.97;;
51810;SDS011;52468;40.116;18.296;2024-02-15T00:13:13;8.97;;;2.87;;
51810;SDS011;52468;40.116;18.296;2024-02-15T00:15:41;11.97;;;3.37;;
51810;SDS011;52468;40.116;18.296;2024-02-15T00:18:09;7.17;;;3.17;;
51810;SDS011;52468;40.116;18.296;2024-02-15T00:20:37;8.43;;;3.43;;
51810;SDS011;52468;40.116;18.296;2024-02-15T00:23:06;15.47;;;3.67;;
51810;SDS011;52468;40.116;18.296;2024-02-15T00:25:34;12.53;;;4.40;;
51810;SDS011;52468;40.116;18.296;2024-02-15T00:28:03;8.90;;;3.30;;
51810;SDS011;52468;40.116;18.296;2024-02-15T00:30:31;12.37;;;5.40;;
51810;SDS011;52468;40.116;18.296;2024-02-15T00:32:59;9.43;;;2.97;;
51810;SDS011;52468;40.116;18.296;2024-02-15T00:35:28;9.97;;;3.57;;
51810;SDS011;52468;40.116;18.296;2024-02-15T00:37:56;10.27;;;3.40;;
51810;SDS011;52468;40.116;18.296;2024-02-15T00:40:24;8.53;;;3.20;;
51810;SDS011;52468;40.116;18.296;2024-02-15T00:42:52;15.23;;;4.40;;
51810;SDS011;52468;40.116;18.296;2024-02-15T00:45:20;9.17;;;3.73;;
51810;SDS011;52468;40.116;18.296;2024-02-15T00:47:48;10.90;;;3.67;;
51810;SDS011;52468;40.116;18.296;2024-02-15T00:50:16;9.63;;;4.40;;
51810;SDS011;52468;40.116;18.296;2024-02-15T00:52:44;11.47;;;3.90;;
51810;SDS011;52468;40.116;18.296;2024-02-15T00:55:12;10.80;;;3.20;;
51810;SDS011;52468;40.116;18.296;2024-02-15T00:57:40;8.63;;;3.30;;
51810;SDS011;52468;40.116;18.296;2024-02-15T01:00:08;6.00;;;3.37;;
51810;SDS011;52468;40.116;18.296;2024-02-15T01:02:36;12.27;;;3.50;;
51810;SDS011;52468;40.116;18.296;2024-02-15T01:05:04;12.03;;;4.93;;
51810;SDS011;52468;40.116;18.296;2024-02-15T01:07:33;6.87;;;3.30;;
51810;SDS011;52468;40.116;18.296;2024-02-15T01:10:00;12.53;;;3.63;;
51810;SDS011;52468;40.116;18.296;2024-02-15T01:12:31;7.17;;;2.80;;
51810;SDS011;52468;40.116;18.296;2024-02-15T01:14:58;11.73;;;3.00;;
51810;SDS011;52468;40.116;18.296;2024-02-15T01:17:26;10.30;;;3.83;;
51810;SDS011;52468;40.116;18.296;2024-02-15T01:19:54;7.97;;;3.37;;
51810;SDS011;52468;40.116;18.296;2024-02-15T01:22:22;10.67;;;3.37;;
51810;SDS011;52468;40.116;18.296;2024-02-15T01:24:54;10.17;;;3.43;;
51810;SDS011;52468;40.116;18.296;2024-02-15T01:27:24;6.83;;;3.03;;
51810;SDS011;52468;40.116;18.296;2024-02-15T01:29:54;8.80;;;3.23;;
51810;SDS011;52468;40.116;18.296;2024-02-15T01:32:23;8.60;;;3.67;;
51810;SDS011;52468;40.116;18.296;2024-02-15T01:34:52;11.20;;;3.10;;
51810;SDS011;52468;40.116;18.296;2024-02-15T01:37:22;7.53;;;3.80;;
51810;SDS011;52468;40.116;18.296;2024-02-15T01:39:50;6.13;;;2.93;;
51810;SDS011;52468;40.116;18.296;2024-02-15T01:42:18;8.30;;;3.00;;
51810;SDS011;52468;40.116;18.296;2024-02-15T01:44:46;10.63;;;3.93;;
51810;SDS011;52468;40.116;18.296;2024-02-15T01:47:17;10.17;;;4.37;;
51810;SDS011;52468;40.116;18.296;2024-02-15T01:49:50;12.18;;;3.70;;
51810;SDS011;52468;40.116;18.296;2024-02-15T01:52:20;7.60;;;3.10;;
51810;SDS011;52468;40.116;18.296;2024-02-15T01:54:50;8.03;;;2.97;;
51810;SDS011;52468;40.116;18.296;2024-02-15T01:57:20;6.47;;;2.93;;
51810;SDS011;52468;40.116;18.296;2024-02-15T01:59:50;12.70;;;3.20;;
51810;SDS011;52468;40.116;18.296;2024-02-15T02:02:20;10.20;;;3.53;;
51810;SDS011;52468;40.116;18.296;2024-02-15T02:04:49;4.67;;;2.93;;
51810;SDS011;52468;40.116;18.296;2024-02-15T02:07:17;6.07;;;3.17;;
51810;SDS011;52468;40.116;18.296;2024-02-15T02:09:46;5.63;;;3.40;;
51810;SDS011;52468;40.116;18.296;2024-02-15T02:12:14;9.20;;;2.83;;
51810;SDS011;52468;40.116;18.296;2024-02-15T02:14:42;8.47;;;3.10;;
51810;SDS011;52468;40.116;18.296;2024-02-15T02:17:10;4.90;;;3.10;;
51810;SDS011;52468;40.116;18.296;2024-02-15T02:19:41;6.73;;;2.90;;
51810;SDS011;52468;40.116;18.296;2024-02-15T02:22:10;6.23;;;3.20;;
51810;SDS011;52468;40.116;18.296;2024-02-15T02:25:25;7.37;;;3.00;;
51810;SDS011;52468;40.116;18.296;2024-02-15T02:27:28;11.13;;;4.13;;
51810;SDS011;52468;40.116;18.296;2024-02-15T02:29:57;9.73;;;3.47;;
51810;SDS011;52468;40.116;18.296;2024-02-15T02:32:26;5.30;;;3.20;;
51810;SDS011;52468;40.116;18.296;2024-02-15T02:34:55;12.50;;;3.67;;
51810;SDS011;52468;40.116;18.296;2024-02-15T02:37:26;7.93;;;3.50;;
51810;SDS011;52468;40.116;18.296;2024-02-15T02:39:55;5.90;;;3.57;;
51810;SDS011;52468;40.116;18.296;2024-02-15T02:42:23;6.73;;;2.80;;
51810;SDS011;52468;40.116;18.296;2024-02-15T02:44:51;12.67;;;3.33;;
51810;SDS011;52468;40.116;18.296;2024-02-15T02:47:19;6.10;;;3.10;;
51810;SDS011;52468;40.116;18.296;2024-02-15T02:49:46;8.43;;;2.70;;
51810;SDS011;52468;40.116;18.296;2024-02-15T02:52:14;5.37;;;3.40;;
51810;SDS011;52468;40.116;18.296;2024-02-15T02:54:42;9.10;;;3.37;;
51810;SDS011;52468;40.116;18.296;2024-02-15T02:57:10;8.40;;;2.70;;
51810;SDS011;52468;40.116;18.296;2024-02-15T02:59:38;5.27;;;3.17;;
51810;SDS011;52468;40.116;18.296;2024-02-15T03:02:07;6.20;;;3.27;;
51810;SDS011;52468;40.116;18.296;2024-02-15T03:04:35;10.93;;;3.47;;
51810;SDS011;52468;40.116;18.296;2024-02-15T03:07:05;10.80;;;3.77;;
51810;SDS011;52468;40.116;18.296;2024-02-15T03:09:33;7.53;;;3.07;;
51810;SDS011;52468;40.116;18.296;2024-02-15T03:12:02;4.57;;;2.93;;
51810;SDS011;52468;40.116;18.296;2024-02-15T03:14:31;11.07;;;2.93;;
51810;SDS011;52468;40.116;18.296;2024-02-15T03:17:01;7.90;;;3.10;;
51810;SDS011;52468;40.116;18.296;2024-02-15T03:19:30;10.90;;;3.33;;
51810;SDS011;52468;40.116;18.296;2024-02-15T03:21:58;4.60;;;3.03;;
51810;SDS011;52468;40.116;18.296;2024-02-15T03:24:27;8.43;;;3.27;;
51810;SDS011;52468;40.116;18.296;2024-02-15T03:26:55;6.43;;;3.47;;
51810;SDS011;52468;40.116;18.296;2024-02-15T03:29:23;6.27;;;3.43;;
51810;SDS011;52468;40.116;18.296;2024-02-15T03:31:52;7.50;;;3.73;;
51810;SDS011;52468;40.116;18.296;2024-02-15T03:34:21;10.77;;;3.23;;
51810;SDS011;52468;40.116;18.296;2024-02-15T03:36:50;11.43;;;3.60;;
51810;SDS011;52468;40.116;18.296;2024-02-15T03:39:21;6.60;;;3.83;;
51810;SDS011;52468;40.116;18.296;2024-02-15T03:41:50;11.27;;;3.60;;
51810;SDS011;52468;40.116;18.296;2024-02-15T03:44:18;6.97;;;3.97;;
51810;SDS011;52468;40.116;18.296;2024-02-15T03:46:46;8.53;;;2.77;;
51810;SDS011;52468;40.116;18.296;2024-02-15T03:49:18;5.80;;;3.13;;
51810;SDS011;52468;40.116;18.296;2024-02-15T03:51:47;9.80;;;3.50;;
51810;SDS011;52468;40.116;18.296;2024-02-15T03:54:16;7.00;;;3.73;;
51810;SDS011;52468;40.116;18.296;2024-02-15T03:56:48;4.10;;;3.03;;
51810;SDS011;52468;40.116;18.296;2024-02-15T03:59:20;4.83;;;2.83;;
51810;SDS011;52468;40.116;18.296;2024-02-15T04:01:54;4.70;;;3.27;;
51810;SDS011;52468;40.116;18.296;2024-02-15T04:04:23;3.70;;;3.20;;
51810;SDS011;52468;40.116;18.296;2024-02-15T04:06:51;8.30;;;3.27;;
51810;SDS011;52468;40.116;18.296;2024-02-15T04:09:19;4.93;;;2.83;;
51810;SDS011;52468;40.116;18.296;2024-02-15T04:11:51;5.30;;;2.80;;
51810;SDS011;52468;40.116;18.296;2024-02-15T04:14:20;5.57;;;3.27;;
51810;SDS011;52468;40.116;18.296;2024-02-15T04:16:48;5.40;;;2.70;;
51810;SDS011;52468;40.116;18.296;2024-02-15T04:19:16;4.30;;;2.70;;
51810;SDS011;52468;40.116;18.296;2024-02-15T04:21:47;8.33;;;3.17;;
51810;SDS011;52468;40.116;18.296;2024-02-15T04:24:15;8.67;;;3.03;;
51810;SDS011;52468;40.116;18.296;2024-02-15T04:26:43;4.77;;;2.70;;
51810;SDS011;52468;40.116;18.296;2024-02-15T04:29:12;5.50;;;2.77;;
51810;SDS011;52468;40.116;18.296;2024-02-15T04:31:41;3.80;;;2.83;;
51810;SDS011;52468;40.116;18.296;2024-02-15T04:34:10;4.30;;;3.00;;
51810;SDS011;52468;40.116;18.296;2024-02-15T04:36:38;8.23;;;2.97;;
51810;SDS011;52468;40.116;18.296;2024-02-15T04:39:06;7.33;;;3.03;;
51810;SDS011;52468;40.116;18.296;2024-02-15T04:41:34;8.20;;;3.10;;
51810;SDS011;52468;40.116;18.296;2024-02-15T04:44:02;7.80;;;4.07;;
51810;SDS011;52468;40.116;18.296;2024-02-15T04:46:31;5.53;;;3.43;;
51810;SDS011;52468;40.116;18.296;2024-02-15T04:48:58;11.00;;;3.53;;
51810;SDS011;52468;40.116;18.296;2024-02-15T04:51:29;4.83;;;2.93;;
51810;SDS011;52468;40.116;18.296;2024-02-15T04:53:56;8.33;;;3.10;;
51810;SDS011;52468;40.116;18.296;2024-02-15T04:56:25;7.03;;;3.27;;
51810;SDS011;52468;40.116;18.296;2024-02-15T04:58:53;4.63;;;2.50;;
51810;SDS011;52468;40.116;18.296;2024-02-15T05:01:21;9.07;;;3.37;;
51810;SDS011;52468;40.116;18.296;2024-02-15T05:03:49;7.97;;;2.80;;
51810;SDS011;52468;40.116;18.296;2024-02-15T05:06:17;4.03;;;3.00;;
51810;SDS011;52468;40.116;18.296;2024-02-15T05:08:46;5.47;;;2.83;;
51810;SDS011;52468;40.116;18.296;2024-02-15T05:11:14;4.77;;;2.87;;
51810;SDS011;52468;40.116;18.296;2024-02-15T05:13:45;9.20;;;4.40;;
51810;SDS011;52468;40.116;18.296;2024-02-15T05:16:13;8.10;;;3.03;;
51810;SDS011;52468;40.116;18.296;2024-02-15T05:18:41;9.13;;;3.00;;
51810;SDS011;52468;40.116;18.296;2024-02-15T05:21:10;7.33;;;2.90;;
51810;SDS011;52468;40.116;18.296;2024-02-15T05:23:38;8.40;;;3.53;;
51810;SDS011;52468;40.116;18.296;2024-02-15T05:26:07;6.23;;;3.67;;
51810;SDS011;52468;40.116;18.296;2024-02-15T05:28:36;7.47;;;3.53;;
51810;SDS011;52468;40.116;18.296;2024-02-15T05:31:19;6.07;;;2.60;;
51810;SDS011;52468;40.116;18.296;2024-02-15T05:33:49;6.30;;;2.83;;
51810;SDS011;52468;40.116;18.296;2024-02-15T05:36:18;6.43;;;3.57;;
51810;SDS011;52468;40.116;18.296;2024-02-15T05:38:49;7.03;;;3.00;;
51810;SDS011;52468;40.116;18.296;2024-02-15T05:41:18;8.73;;;3.30;;
51810;SDS011;52468;40.116;18.296;2024-02-15T05:43:48;8.33;;;4.77;;
51810;SDS011;52468;40.116;18.296;2024-02-15T05:46:15;8.43;;;3.90;;
51810;SDS011;52468;40.116;18.296;2024-02-15T05:48:43;9.37;;;5.03;;
51810;SDS011;52468;40.116;18.296;2024-02-15T05:51:11;9.10;;;4.80;;
51810;SDS011;52468;40.116;18.296;2024-02-15T05:53:40;6.13;;;3.83;;
51810;SDS011;52468;40.116;18.296;2024-02-15T05:56:08;8.17;;;4.07;;
51810;SDS011;52468;40.116;18.296;2024-02-15T05:58:40;4.97;;;2.90;;
51810;SDS011;52468;40.116;18.296;2024-02-15T06:01:08;7.57;;;3.93;;
51810;SDS011;52468;40.116;18.296;2024-02-15T06:03:38;8.27;;;4.17;;
51810;SDS011;52468;40.116;18.296;2024-02-15T06:06:07;6.73;;;4.33;;
51810;SDS011;52468;40.116;18.296;2024-02-15T06:08:35;10.20;;;4.30;;
51810;SDS011;52468;40.116;18.296;2024-02-15T06:11:04;7.07;;;4.43;;
51810;SDS011;52468;40.116;18.296;2024-02-15T06:13:37;10.05;;;4.18;;
51810;SDS011;52468;40.116;18.296;2024-02-15T06:16:04;8.20;;;4.13;;
51810;SDS011;52468;40.116;18.296;2024-02-15T06:18:36;7.83;;;4.30;;
51810;SDS011;52468;40.116;18.296;2024-02-15T06:21:05;7.17;;;3.63;;
51810;SDS011;52468;40.116;18.296;2024-02-15T06:23:33;9.07;;;4.07;;
51810;SDS011;52468;40.116;18.296;2024-02-15T06:26:01;6.43;;;3.33;;
51810;SDS011;52468;40.116;18.296;2024-02-15T06:28:30;10.23;;;4.67;;
51810;SDS011;52468;40.116;18.296;2024-02-15T06:31:16;7.03;;;3.60;;
51810;SDS011;52468;40.116;18.296;2024-02-15T06:34:03;8.97;;;3.87;;
51810;SDS011;52468;40.116;18.296;2024-02-15T06:36:50;7.00;;;3.83;;
51810;SDS011;52468;40.116;18.296;2024-02-15T06:39:38;4.63;;;2.70;;
51810;SDS011;52468;40.116;18.296;2024-02-15T06:42:10;7.23;;;3.27;;
51810;SDS011;52468;40.116;18.296;2024-02-15T06:44:39;7.60;;;2.80;;
51810;SDS011;52468;40.116;18.296;2024-02-15T06:47:07;8.20;;;2.87;;
51810;SDS011;52468;40.116;18.296;2024-02-15T06:49:38;7.23;;;3.00;;
51810;SDS011;52468;40.116;18.296;2024-02-15T06:52:11;6.20;;;3.40;;
51810;SDS011;52468;40.116;18.296;2024-02-15T06:54:39;6.97;;;4.23;;
51810;SDS011;52468;40.116;18.296;2024-02-15T06:57:07;4.77;;;2.73;;
51810;SDS011;52468;40.116;18.296;2024-02-15T06:59:35;7.27;;;3.10;;
51810;SDS011;52468;40.116;18.296;2024-02-15T07:02:05;6.70;;;3.63;;
51810;SDS011;52468;40.116;18.296;2024-02-15T07:04:35;4.13;;;3.07;;
51810;SDS011;52468;40.116;18.296;2024-02-15T07:07:04;5.53;;;2.57;;
51810;SDS011;52468;40.116;18.296;2024-02-15T07:09:32;5.50;;;3.47;;
51810;SDS011;52468;40.116;18.296;2024-02-15T07:12:00;4.47;;;3.53;;
51810;SDS011;52468;40.116;18.296;2024-02-15T07:14:27;7.07;;;3.67;;
51810;SDS011;52468;40.116;18.296;2024-02-15T07:16:55;8.83;;;3.30;;
51810;SDS011;52468;40.116;18.296;2024-02-15T07:19:26;4.90;;;2.73;;
51810;SDS011;52468;40.116;18.296;2024-02-15T07:21:54;5.33;;;3.07;;
51810;SDS011;52468;40.116;18.296;2024-02-15T07:24:24;5.13;;;2.77;;
51810;SDS011;52468;40.116;18.296;2024-02-15T07:26:54;5.37;;;2.53;;
51810;SDS011;52468;40.116;18.296;2024-02-15T07:29:25;7.40;;;2.63;;
51810;SDS011;52468;40.116;18.296;2024-02-15T07:31:54;4.90;;;2.67;;
51810;SDS011;52468;40.116;18.296;2024-02-15T07:34:22;6.47;;;2.77;;
51810;SDS011;52468;40.116;18.296;2024-02-15T07:36:50;7.27;;;3.17;;
51810;SDS011;52468;40.116;18.296;2024-02-15T07:39:18;3.50;;;2.90;;
51810;SDS011;52468;40.116;18.296;2024-02-15T07:41:52;3.75;;;2.30;;
51810;SDS011;52468;40.116;18.296;2024-02-15T07:44:20;4.80;;;2.70;;
51810;SDS011;52468;40.116;18.296;2024-02-15T07:46:49;5.40;;;2.27;;
51810;SDS011;52468;40.116;18.296;2024-02-15T07:49:17;3.60;;;1.80;;
51810;SDS011;52468;40.116;18.296;2024-02-15T07:51:45;8.23;;;2.60;;
51810;SDS011;52468;40.116;18.296;2024-02-15T07:54:20;5.23;;;2.13;;
51810;SDS011;52468;40.116;18.296;2024-02-15T07:56:48;4.17;;;2.27;;
51810;SDS011;52468;40.116;18.296;2024-02-15T07:59:16;4.13;;;2.07;;
51810;SDS011;52468;40.116;18.296;2024-02-15T08:01:44;3.30;;;1.57;;
51810;SDS011;52468;40.116;18.296;2024-02-15T08:04:14;4.17;;;1.83;;
51810;SDS011;52468;40.116;18.296;2024-02-15T08:06:45;3.90;;;1.93;;
51810;SDS011;52468;40.116;18.296;2024-02-15T08:09:15;5.20;;;2.27;;
51810;SDS011;52468;40.116;18.296;2024-02-15T08:11:45;3.97;;;1.60;;
51810;SDS011;52468;40.116;18.296;2024-02-15T08:14:13;3.57;;;2.40;;
51810;SDS011;52468;40.116;18.296;2024-02-15T08:16:40;6.07;;;2.33;;
51810;SDS011;52468;40.116;18.296;2024-02-15T08:19:08;7.07;;;2.00;;
51810;SDS011;52468;40.116;18.296;2024-02-15T08:21:38;3.27;;;1.63;;
51810;SDS011;52468;40.116;18.296;2024-02-15T08:24:08;6.07;;;2.10;;
51810;SDS011;52468;40.116;18.296;2024-02-15T08:26:37;5.47;;;1.87;;
51810;SDS011;52468;40.116;18.296;2024-02-15T08:29:06;2.23;;;1.47;;
51810;SDS011;52468;40.116;18.296;2024-02-15T08:31:34;3.40;;;1.53;;
51810;SDS011;52468;40.116;18.296;2024-02-15T08:34:02;3.47;;;1.80;;
51810;SDS011;52468;40.116;18.296;2024-02-15T08:36:33;2.10;;;1.40;;
51810;SDS011;52468;40.116;18.296;2024-02-15T08:39:01;4.23;;;1.53;;
51810;SDS011;52468;40.116;18.296;2024-02-15T08:41:31;2.20;;;1.33;;
51810;SDS011;52468;40.116;18.296;2024-02-15T08:43:58;3.17;;;1.97;;
51810;SDS011;52468;40.116;18.296;2024-02-15T08:46:28;1.70;;;1.50;;
51810;SDS011;52468;40.116;18.296;2024-02-15T08:48:56;3.43;;;1.43;;
51810;SDS011;52468;40.116;18.296;2024-02-15T08:51:24;1.87;;;1.23;;
51810;SDS011;52468;40.116;18.296;2024-02-15T08:53:52;3.50;;;1.27;;
51810;SDS011;52468;40.116;18.296;2024-02-15T08:56:20;2.80;;;1.20;;
51810;SDS011;52468;40.116;18.296;2024-02-15T08:58:50;4.53;;;1.67;;
51810;SDS011;52468;40.116;18.296;2024-02-15T09:01:18;2.00;;;1.40;;
51810;SDS011;52468;40.116;18.296;2024-02-15T09:03:45;2.53;;;1.27;;
51810;SDS011;52468;40.116;18.296;2024-02-15T09:06:14;1.20;;;0.80;;
51810;SDS011;52468;40.116;18.296;2024-02-15T09:08:42;2.20;;;1.20;;
51810;SDS011;52468;40.116;18.296;2024-02-15T09:11:10;2.33;;;1.57;;
51810;SDS011;52468;40.116;18.296;2024-02-15T09:13:39;1.80;;;1.03;;
51810;SDS011;52468;40.116;18.296;2024-02-15T09:16:07;3.03;;;1.60;;
51810;SDS011;52468;40.116;18.296;2024-02-15T09:18:35;3.90;;;1.83;;
51810;SDS011;52468;40.116;18.296;2024-02-15T09:21:03;2.43;;;1.67;;
51810;SDS011;52468;40.116;18.296;2024-02-15T09:23:32;5.07;;;1.53;;
51810;SDS011;52468;40.116;18.296;2024-02-15T09:26:00;1.77;;;1.50;;
51810;SDS011;52468;40.116;18.296;2024-02-15T09:28:27;3.17;;;1.77;;
51810;SDS011;52468;40.116;18.296;2024-02-15T09:30:55;2.03;;;1.30;;
51810;SDS011;52468;40.116;18.296;2024-02-15T09:33:26;2.03;;;1.20;;
51810;SDS011;52468;40.116;18.296;2024-02-15T09:35:54;2.37;;;1.50;;
51810;SDS011;52468;40.116;18.296;2024-02-15T09:38:22;4.40;;;1.90;;
51810;SDS011;52468;40.116;18.296;2024-02-15T09:40:52;2.90;;;1.93;;
51810;SDS011;52468;40.116;18.296;2024-02-15T09:43:21;3.00;;;1.37;;
51810;SDS011;52468;40.116;18.296;2024-02-15T09:45:53;7.30;;;1.87;;
51810;SDS011;52468;40.116;18.296;2024-02-15T09:48:23;6.40;;;2.27;;
51810;SDS011;52468;40.116;18.296;2024-02-15T09:50:52;2.63;;;1.13;;
51810;SDS011;52468;40.116;18.296;2024-02-15T09:53:22;2.17;;;1.47;;
51810;SDS011;52468;40.116;18.296;2024-02-15T09:55:53;4.20;;;1.27;;
51810;SDS011;52468;40.116;18.296;2024-02-15T09:58:21;2.57;;;1.57;;
51810;SDS011;52468;40.116;18.296;2024-02-15T10:00:52;2.33;;;1.40;;
51810;SDS011;52468;40.116;18.296;2024-02-15T10:03:20;4.80;;;1.07;;
51810;SDS011;52468;40.116;18.296;2024-02-15T10:05:50;4.60;;;1.70;;
51810;SDS011;52468;40.116;18.296;2024-02-15T10:08:18;4.27;;;1.40;;
51810;SDS011;52468;40.116;18.296;2024-02-15T10:10:55;5.43;;;1.97;;
51810;SDS011;52468;40.116;18.296;2024-02-15T10:13:34;7.37;;;1.80;;
51810;SDS011;52468;40.116;18.296;2024-02-15T10:16:18;4.77;;;1.80;;
51810;SDS011;52468;40.116;18.296;2024-02-15T10:18:46;2.53;;;1.50;;
51810;SDS011;52468;40.116;18.296;2024-02-15T10:21:24;3.60;;;1.67;;
51810;SDS011;52468;40.116;18.296;2024-02-15T10:24:04;1.83;;;1.30;;
51810;SDS011;52468;40.116;18.296;2024-02-15T10:26:36;2.83;;;1.60;;
51810;SDS011;52468;40.116;18.296;2024-02-15T10:29:07;1.90;;;1.30;;
51810;SDS011;52468;40.116;18.296;2024-02-15T10:31:38;2.70;;;1.67;;
51810;SDS011;52468;40.116;18.296;2024-02-15T10:34:09;3.57;;;1.50;;
51810;SDS011;52468;40.116;18.296;2024-02-15T10:36:41;2.83;;;1.93;;
51810;SDS011;52468;40.116;18.296;2024-02-15T10:39:10;7.17;;;3.13;;
51810;SDS011;52468;40.116;18.296;2024-02-15T10:41:44;3.33;;;1.40;;
51810;SDS011;52468;40.116;18.296;2024-02-15T10:44:31;2.53;;;1.03;;
51810;SDS011;52468;40.116;18.296;2024-02-15T10:47:01;3.57;;;1.80;;
51810;SDS011;52468;40.116;18.296;2024-02-15T10:49:34;1.95;;;1.40;;
51810;SDS011;52468;40.116;18.296;2024-02-15T10:52:05;2.23;;;1.80;;
51810;SDS011;52468;40.116;18.296;2024-02-15T10:57:09;5.63;;;2.23;;
51810;SDS011;52468;40.116;18.296;2024-02-15T10:59:43;2.60;;;1.10;;
51810;SDS011;52468;40.116;18.296;2024-02-15T11:05:05;2.40;;;1.43;;
51810;SDS011;52468;40.116;18.296;2024-02-15T11:07:37;2.22;;;1.70;;
51810;SDS011;52468;40.116;18.296;2024-02-15T11:10:06;2.23;;;1.60;;
51810;SDS011;52468;40.116;18.296;2024-02-15T11:12:37;3.13;;;1.87;;
51810;SDS011;52468;40.116;18.296;2024-02-15T11:15:06;2.30;;;1.60;;
51810;SDS011;52468;40.116;18.296;2024-02-15T11:17:44;4.50;;;2.13;;
51810;SDS011;52468;40.116;18.296;2024-02-15T11:23:01;1.53;;;1.40;;
51810;SDS011;52468;40.116;18.296;2024-02-15T11:25:31;2.20;;;1.37;;
51810;SDS011;52468;40.116;18.296;2024-02-15T11:30:49;1.73;;;1.25;;
51810;SDS011;52468;40.116;18.296;2024-02-15T11:33:33;3.40;;;1.30;;
51810;SDS011;52468;40.116;18.296;2024-02-15T11:38:38;1.53;;;1.10;;
51810;SDS011;52468;40.116;18.296;2024-02-15T11:41:10;7.22;;;2.13;;
51810;SDS011;52468;40.116;18.296;2024-02-15T11:46:19;3.90;;;3.00;;
51810;SDS011;52468;40.116;18.296;2024-02-15T11:48:48;2.77;;;2.40;;
51810;SDS011;52468;40.116;18.296;2024-02-15T11:54:06;1.30;;;1.20;;
51810;SDS011;52468;40.116;18.296;2024-02-15T11:59:16;4.80;;;1.40;;
51810;SDS011;52468;40.116;18.296;2024-02-15T12:01:56;2.70;;;1.00;;
51810;SDS011;52468;40.116;18.296;2024-02-15T12:04:43;1.30;;;1.00;;
51810;SDS011;52468;40.116;18.296;2024-02-15T12:07:30;2.83;;;1.63;;
51810;SDS011;52468;40.116;18.296;2024-02-15T12:10:17;1.20;;;0.90;;
51810;SDS011;52468;40.116;18.296;2024-02-15T12:13:04;1.50;;;1.20;;
51810;SDS011;52468;40.116;18.296;2024-02-15T12:15:59;3.53;;;2.00;;
51810;SDS011;52468;40.116;18.296;2024-02-15T12:18:46;3.07;;;1.70;;
51810;SDS011;52468;40.116;18.296;2024-02-15T12:23:54;1.63;;;0.90;;
51810;SDS011;52468;40.116;18.296;2024-02-15T12:26:23;5.33;;;1.60;;
51810;SDS011;52468;40.116;18.296;2024-02-15T12:28:51;1.50;;;1.17;;
51810;SDS011;52468;40.116;18.296;2024-02-15T12:31:22;3.83;;;1.60;;
51810;SDS011;52468;40.116;18.296;2024-02-15T12:34:02;2.03;;;1.20;;
51810;SDS011;52468;40.116;18.296;2024-02-15T12:36:34;2.80;;;1.57;;
51810;SDS011;52468;40.116;18.296;2024-02-15T12:39:06;2.20;;;1.43;;
51810;SDS011;52468;40.116;18.296;2024-02-15T12:41:38;2.37;;;1.77;;
51810;SDS011;52468;40.116;18.296;2024-02-15T12:44:18;4.60;;;2.83;;
51810;SDS011;52468;40.116;18.296;2024-02-15T12:46:54;2.27;;;1.40;;
51810;SDS011;52468;40.116;18.296;2024-02-15T12:51:53;3.63;;;2.00;;
51810;SDS011;52468;40.116;18.296;2024-02-15T12:54:41;3.77;;;1.53;;
51810;SDS011;52468;40.116;18.296;2024-02-15T12:57:09;4.80;;;2.20;;
51810;SDS011;52468;40.116;18.296;2024-02-15T12:59:38;1.93;;;1.30;;
51810;SDS011;52468;40.116;18.296;2024-02-15T13:02:06;4.50;;;1.90;;
51810;SDS011;52468;40.116;18.296;2024-02-15T13:04:34;3.20;;;1.40;;
51810;SDS011;52468;40.116;18.296;2024-02-15T13:07:02;2.17;;;1.30;;
51810;SDS011;52468;40.116;18.296;2024-02-15T13:09:30;2.87;;;1.40;;
51810;SDS011;52468;40.116;18.296;2024-02-15T13:11:57;2.97;;;1.87;;
51810;SDS011;52468;40.116;18.296;2024-02-15T13:14:26;1.97;;;1.80;;
51810;SDS011;52468;40.116;18.296;2024-02-15T13:16:56;4.27;;;1.83;;
51810;SDS011;52468;40.116;18.296;2024-02-15T13:19:24;4.43;;;1.70;;
51810;SDS011;52468;40.116;18.296;2024-02-15T13:21:52;5.57;;;2.43;;
51810;SDS011;52468;40.116;18.296;2024-02-15T13:24:23;2.50;;;1.27;;
51810;SDS011;52468;40.116;18.296;2024-02-15T13:26:53;2.27;;;1.10;;
51810;SDS011;52468;40.116;18.296;2024-02-15T13:29:24;5.40;;;1.60;;
51810;SDS011;52468;40.116;18.296;2024-02-15T13:31:52;2.40;;;1.47;;
51810;SDS011;52468;40.116;18.296;2024-02-15T13:34:21;3.40;;;1.67;;
51810;SDS011;52468;40.116;18.296;2024-02-15T13:36:49;2.67;;;1.40;;
51810;SDS011;52468;40.116;18.296;2024-02-15T13:39:17;3.00;;;1.30;;
51810;SDS011;52468;40.116;18.296;2024-02-15T13:41:48;4.63;;;1.63;;
51810;SDS011;52468;40.116;18.296;2024-02-15T13:44:16;4.60;;;1.90;;
51810;SDS011;52468;40.116;18.296;2024-02-15T13:46:45;4.50;;;1.53;;
51810;SDS011;52468;40.116;18.296;2024-02-15T13:49:13;2.80;;;1.30;;
51810;SDS011;52468;40.116;18.296;2024-02-15T13:51:42;1.60;;;1.03;;
51810;SDS011;52468;40.116;18.296;2024-02-15T13:54:10;1.90;;;1.30;;
51810;SDS011;52468;40.116;18.296;2024-02-15T13:56:38;3.23;;;1.57;;
51810;SDS011;52468;40.116;18.296;2024-02-15T13:59:06;3.40;;;1.50;;
51810;SDS011;52468;40.116;18.296;2024-02-15T14:01:35;4.43;;;1.33;;
51810;SDS011;52468;40.116;18.296;2024-02-15T14:04:10;1.97;;;1.40;;
51810;SDS011;52468;40.116;18.296;2024-02-15T14:06:38;2.33;;;1.40;;
51810;SDS011;52468;40.116;18.296;2024-02-15T14:09:07;3.40;;;2.00;;
51810;SDS011;52468;40.116;18.296;2024-02-15T14:11:38;3.37;;;2.00;;
51810;SDS011;52468;40.116;18.296;2024-02-15T14:14:06;1.90;;;1.50;;
51810;SDS011;52468;40.116;18.296;2024-02-15T14:16:34;2.60;;;1.63;;
51810;SDS011;52468;40.116;18.296;2024-02-15T14:19:02;4.27;;;2.93;;
51810;SDS011;52468;40.116;18.296;2024-02-15T14:21:31;2.87;;;1.80;;
51810;SDS011;52468;40.116;18.296;2024-02-15T14:24:00;5.10;;;2.47;;
51810;SDS011;52468;40.116;18.296;2024-02-15T14:26:33;1.67;;;1.40;;
51810;SDS011;52468;40.116;18.296;2024-02-15T14:29:01;2.13;;;1.50;;
51810;SDS011;52468;40.116;18.296;2024-02-15T14:31:30;3.37;;;1.70;;
51810;SDS011;52468;40.116;18.296;2024-02-15T14:34:16;5.67;;;1.40;;
51810;SDS011;52468;40.116;18.296;2024-02-15T14:36:45;3.27;;;2.97;;
51810;SDS011;52468;40.116;18.296;2024-02-15T14:39:14;3.10;;;2.70;;
51810;SDS011;52468;40.116;18.296;2024-02-15T14:41:43;2.20;;;1.80;;
51810;SDS011;52468;40.116;18.296;2024-02-15T14:44:15;4.85;;;2.38;;
51810;SDS011;52468;40.116;18.296;2024-02-15T14:46:42;4.50;;;2.57;;
51810;SDS011;52468;40.116;18.296;2024-02-15T14:49:12;4.30;;;2.30;;
51810;SDS011;52468;40.116;18.296;2024-02-15T14:51:40;4.37;;;2.57;;
51810;SDS011;52468;40.116;18.296;2024-02-15T14:54:09;3.87;;;2.20;;
51810;SDS011;52468;40.116;18.296;2024-02-15T14:56:37;6.13;;;2.80;;
51810;SDS011;52468;40.116;18.296;2024-02-15T14:59:05;4.73;;;2.97;;
51810;SDS011;52468;40.116;18.296;2024-02-15T15:01:33;4.80;;;2.03;;
51810;SDS011;52468;40.116;18.296;2024-02-15T15:04:02;3.50;;;2.00;;
51810;SDS011;52468;40.116;18.296;2024-02-15T15:06:33;6.00;;;2.50;;
51810;SDS011;52468;40.116;18.296;2024-02-15T15:09:20;3.07;;;2.40;;
51810;SDS011;52468;40.116;18.296;2024-02-15T15:12:06;2.70;;;1.90;;
51810;SDS011;52468;40.116;18.296;2024-02-15T15:14:53;5.00;;;2.53;;
51810;SDS011;52468;40.116;18.296;2024-02-15T15:17:22;3.83;;;1.90;;